Time,TemperatureF,DewpointF,PressureIn,WindDirection,WindDirectionDegrees,WindSpeedMPH,WindSpeedGustMPH,Humidity,HourlyPrecipIn,Conditions,Clouds,dailyrainin,SoftwareType,DateUTC
2013-01-26 00:01:00,35.2,33.9,29.35,SSW,207,1.1,1.1,95,0.02,RA,,0.00,WeatherDisplay:10.37,2013-01-26 00:01:00,
2013-01-26 00:06:00,35.1,33.8,29.35,SSW,207,3.5,3.5,95,0.02,RA,,0.00,WeatherDisplay:10.37,2013-01-26 00:06:00,
2013-01-26 00:11:00,35.2,33.9,29.35,SSW,207,3.5,3.5,95,0.02,CLR,,0.00,WeatherDisplay:10.37,2013-01-26 00:11:00,
2013-01-26 00:16:00,35.3,34.0,29.35,West,277,5.0,5.0,95,0.03,RA,,0.01,WeatherDisplay:10.37,2013-01-26 00:16:00,
2013-01-26 00:21:00,35.3,34.0,29.35,WNW,291,4.6,4.6,95,0.00,RA,,0.02,WeatherDisplay:10.37,2013-01-26 00:21:00,
2013-01-26 00:26:00,35.3,34.0,29.35,WNW,292,3.5,3.5,95,0.03,RA,,0.02,WeatherDisplay:10.37,2013-01-26 00:26:00,
2013-01-26 00:31:00,35.3,34.0,29.36,WNW,292,3.5,3.5,95,0.00,RA,,0.02,WeatherDisplay:10.37,2013-01-26 00:31:00,
2013-01-26 00:36:00,35.2,33.9,29.36,WNW,291,1.0,0.0,95,0.00,RA,,0.02,WeatherDisplay:10.37,2013-01-26 00:36:00,
2013-01-26 00:41:00,35.2,33.9,29.36,WNW,292,1.1,0.0,95,0.01,RA,,0.03,WeatherDisplay:10.37,2013-01-26 00:41:00,
2013-01-26 00:46:00,35.1,33.8,29.35,WNW,292,3.0,3.0,95,0.00,RA,,0.03,WeatherDisplay:10.37,2013-01-26 00:46:00,
2013-01-26 00:51:00,35.0,33.7,29.35,WNW,292,3.5,3.5,95,0.00,RA,,0.03,WeatherDisplay:10.37,2013-01-26 00:51:00,
2013-01-26 00:56:00,34.9,33.6,29.35,WNW,291,0.0,0.0,95,0.00,CLR,,0.03,WeatherDisplay:10.37,2013-01-26 00:56:00,
2013-01-26 01:01:00,34.9,33.6,29.35,WNW,292,0.0,0.0,95,0.04,RA,,0.04,WeatherDisplay:10.37,2013-01-26 01:01:00,
2013-01-26 01:06:00,35.0,33.7,29.35,West,265,4.6,4.6,95,0.04,RA,,0.04,WeatherDisplay:10.37,2013-01-26 01:06:00,
2013-01-26 01:11:00,35.3,34.0,29.35,West,259,11.5,11.5,95,0.04,,,0.04,WeatherDisplay:10.37,2013-01-26 01:11:00,
2013-01-26 01:16:00,35.7,34.4,29.36,West,280,11.0,11.0,95,0.03,CLR,,0.04,WeatherDisplay:10.37,2013-01-26 01:16:00,
2013-01-26 01:21:00,36.1,34.8,29.36,WSW,246,10.4,10.4,95,0.02,CLR,,0.04,WeatherDisplay:10.37,2013-01-26 01:21:00,
2013-01-26 01:26:00,36.2,34.9,29.36,WNW,296,10.4,10.4,95,0.03,RA,,0.05,WeatherDisplay:10.37,2013-01-26 01:26:00,
2013-01-26 01:31:00,36.4,35.1,29.37,NW,304,8.1,8.1,95,0.02,RA,,0.05,WeatherDisplay:10.37,2013-01-26 01:31:00,
2013-01-26 01:36:00,36.4,35.1,29.37,WNW,289,4.6,4.6,95,0.02,,,0.05,WeatherDisplay:10.37,2013-01-26 01:36:00,
2013-01-26 01:41:00,36.3,35.0,29.37,West,265,7.0,7.0,95,0.02,RA,,0.06,WeatherDisplay:10.37,2013-01-26 01:41:00,
2013-01-26 01:46:00,36.4,35.1,29.37,West,270,3.5,3.5,95,0.02,RA,,0.06,WeatherDisplay:10.37,2013-01-26 01:46:00,
2013-01-26 01:51:00,36.4,35.1,29.37,West,276,6.9,6.9,95,0.02,,,0.06,WeatherDisplay:10.37,2013-01-26 01:51:00,
2013-01-26 01:56:00,36.5,35.2,29.37,WNW,284,10.4,10.4,95,0.02,CLR,,0.06,WeatherDisplay:10.37,2013-01-26 01:56:00,
2013-01-26 02:01:00,36.6,35.3,29.37,WSW,253,5.8,5.8,95,0.02,CLR,,0.06,WeatherDisplay:10.37,2013-01-26 02:01:00,
2013-01-26 02:06:00,36.7,35.4,29.37,West,273,3.5,3.5,95,0.02,RA,,0.06,WeatherDisplay:10.37,2013-01-26 02:06:00,
2013-01-26 02:11:00,36.8,35.5,29.37,WNW,284,5.8,5.8,95,0.02,RA,,0.06,WeatherDisplay:10.37,2013-01-26 02:11:00,
2013-01-26 02:16:00,36.9,35.3,29.38,WNW,288,6.9,6.9,94,0.02,CLR,,0.06,WeatherDisplay:10.37,2013-01-26 02:16:00,
2013-01-26 02:21:00,37.0,35.4,29.38,SW,232,6.0,6.0,94,0.02,CLR,,0.06,WeatherDisplay:10.37,2013-01-26 02:21:00,
2013-01-26 02:26:00,37.2,35.6,29.38,SW,229,3.5,3.5,94,0.02,RA,,0.07,WeatherDisplay:10.37,2013-01-26 02:26:00,
2013-01-26 02:31:00,37.3,35.7,29.38,SW,232,10.0,10.0,94,0.02,RA,,0.07,WeatherDisplay:10.37,2013-01-26 02:31:00,
2013-01-26 02:36:00,37.4,35.8,29.38,WSW,247,10.4,10.4,94,0.02,,,0.07,WeatherDisplay:10.37,2013-01-26 02:36:00,
2013-01-26 02:41:00,37.7,36.1,29.38,WSW,237,11.5,11.5,94,0.02,RA,,0.08,WeatherDisplay:10.37,2013-01-26 02:41:00,
2013-01-26 02:46:00,37.8,36.0,29.39,SW,220,8.1,8.1,93,0.02,RA,,0.08,WeatherDisplay:10.37,2013-01-26 02:46:00,
2013-01-26 02:51:00,37.8,35.7,29.39,West,263,6.9,6.9,92,0.03,RA,,0.09,WeatherDisplay:10.37,2013-01-26 02:51:00,
2013-01-26 02:56:00,37.9,36.1,29.39,WSW,242,5.8,5.8,93,0.03,RA,,0.09,WeatherDisplay:10.37,2013-01-26 02:56:00,
2013-01-26 03:01:00,37.9,35.8,29.39,SW,232,9.2,9.2,92,0.03,,,0.09,WeatherDisplay:10.37,2013-01-26 03:01:00,
2013-01-26 03:06:00,38.0,35.9,29.39,WSW,241,9.2,9.2,92,0.03,RA,,0.09,WeatherDisplay:10.37,2013-01-26 03:06:00,
2013-01-26 03:11:00,38.2,35.8,29.39,West,260,6.9,6.9,91,0.03,RA,,0.09,WeatherDisplay:10.37,2013-01-26 03:11:00,
2013-01-26 03:16:00,38.2,35.8,29.39,SW,216,6.9,6.9,91,0.03,CLR,,0.10,WeatherDisplay:10.37,2013-01-26 03:16:00,
2013-01-26 03:21:00,38.2,35.8,29.39,SW,215,9.2,9.2,91,0.04,RA,,0.10,WeatherDisplay:10.37,2013-01-26 03:21:00,
2013-01-26 03:26:00,38.3,35.9,29.39,SSW,194,11.5,11.5,91,0.03,RA,,0.10,WeatherDisplay:10.37,2013-01-26 03:26:00,
2013-01-26 03:31:00,38.4,36.0,29.39,SW,236,11.5,11.5,91,0.04,RA,,0.11,WeatherDisplay:10.37,2013-01-26 03:31:00,
2013-01-26 03:36:00,38.5,35.8,29.39,SSW,196,10.0,10.0,90,0.04,RA,,0.11,WeatherDisplay:10.37,2013-01-26 03:36:00,
2013-01-26 03:41:00,38.6,35.9,29.39,West,266,5.8,5.8,90,0.03,,,0.11,WeatherDisplay:10.37,2013-01-26 03:41:00,
2013-01-26 03:46:00,38.6,35.9,29.40,SW,225,11.5,11.5,90,0.03,CLR,,0.12,WeatherDisplay:10.37,2013-01-26 03:46:00,
2013-01-26 03:51:00,38.6,35.6,29.40,SSW,213,11.5,11.5,89,0.03,RA,,0.12,WeatherDisplay:10.37,2013-01-26 03:51:00,
2013-01-26 03:56:00,38.7,35.7,29.40,SW,223,6.9,6.9,89,0.03,RA,,0.12,WeatherDisplay:10.37,2013-01-26 03:56:00,
2013-01-26 04:01:00,38.7,35.7,29.40,West,271,11.5,11.5,89,0.03,CLR,,0.12,WeatherDisplay:10.37,2013-01-26 04:01:00,
2013-01-26 04:06:00,38.8,35.8,29.40,SSW,209,13.8,13.8,89,0.03,RA,,0.13,WeatherDisplay:10.37,2013-01-26 04:06:00,
2013-01-26 04:11:00,38.8,35.8,29.40,West,263,11.5,11.5,89,0.03,RA,,0.13,WeatherDisplay:10.37,2013-01-26 04:11:00,
2013-01-26 04:16:00,38.9,35.6,29.40,SW,230,11.5,11.5,88,0.03,CLR,,0.13,WeatherDisplay:10.37,2013-01-26 04:16:00,
2013-01-26 04:21:00,38.9,35.6,29.40,West,272,9.2,9.2,88,0.03,RA,,0.13,WeatherDisplay:10.37,2013-01-26 04:21:00,
2013-01-26 04:26:00,39.0,35.5,29.40,West,275,9.2,9.2,87,0.03,RA,,0.13,WeatherDisplay:10.37,2013-01-26 04:26:00,
2013-01-26 04:31:00,38.9,35.4,29.41,SW,227,9.2,9.2,87,0.03,CLR,,0.13,WeatherDisplay:10.37,2013-01-26 04:31:00,
2013-01-26 04:36:00,38.8,35.3,29.41,SSW,209,10.4,10.4,87,0.02,CLR,,0.13,WeatherDisplay:10.37,2013-01-26 04:36:00,
2013-01-26 04:41:00,38.8,35.3,29.41,SW,236,11.5,11.5,87,0.02,CLR,,0.13,WeatherDisplay:10.37,2013-01-26 04:41:00,
2013-01-26 04:46:00,38.7,35.2,29.41,SSW,205,5.8,5.8,87,0.02,CLR,,0.13,WeatherDisplay:10.37,2013-01-26 04:46:00,
2013-01-26 04:51:00,38.6,35.1,29.41,WSW,244,11.5,11.5,87,0.02,RA,,0.14,WeatherDisplay:10.37,2013-01-26 04:51:00,
2013-01-26 04:56:00,38.6,35.1,29.41,SSW,211,10.4,10.4,87,0.02,RA,,0.14,WeatherDisplay:10.37,2013-01-26 04:56:00,
2013-01-26 05:00:00,38.6,35.1,29.42,SW,218,10.4,10.4,87,0.02,CLR,,0.14,WeatherDisplay:10.37,2013-01-26 05:00:00,
2013-01-26 05:01:00,38.6,35.1,29.42,SW,223,6.9,6.9,87,0.02,CLR,,0.14,WeatherDisplay:10.37,2013-01-26 05:01:00,
2013-01-26 05:02:00,38.6,35.1,29.42,SW,223,8.1,8.1,87,0.02,CLR,,0.14,WeatherDisplay:10.37,2013-01-26 05:02:00,
2013-01-26 05:04:00,38.5,35.0,29.42,SSW,210,9.2,9.2,87,0.02,CLR,,0.14,WeatherDisplay:10.37,2013-01-26 05:04:00,
2013-01-26 05:09:00,38.5,35.0,29.42,SW,227,6.0,6.0,87,0.02,CLR,,0.14,WeatherDisplay:10.37,2013-01-26 05:09:00,
2013-01-26 05:14:00,38.4,34.9,29.42,WSW,238,6.0,6.0,87,0.02,CLR,,0.14,WeatherDisplay:10.37,2013-01-26 05:14:00,
2013-01-26 05:19:00,38.4,34.9,29.42,SW,223,9.2,9.2,87,0.01,CLR,,0.14,WeatherDisplay:10.37,2013-01-26 05:19:00,
2013-01-26 05:24:00,38.4,34.9,29.42,SW,216,10.4,10.4,87,0.01,CLR,,0.14,WeatherDisplay:10.37,2013-01-26 05:24:00,
2013-01-26 05:29:00,38.4,35.2,29.43,West,274,7.0,7.0,88,0.01,CLR,,0.14,WeatherDisplay:10.37,2013-01-26 05:29:00,
2013-01-26 05:34:00,38.4,35.2,29.43,SW,229,11.5,11.5,88,0.02,RA,,0.15,WeatherDisplay:10.37,2013-01-26 05:34:00,
2013-01-26 05:39:00,38.4,35.4,29.43,WSW,258,16.1,16.1,89,0.02,RA,,0.15,WeatherDisplay:10.37,2013-01-26 05:39:00,
2013-01-26 05:44:00,38.4,35.4,29.43,SW,222,10.0,10.0,89,0.02,RA,,0.16,WeatherDisplay:10.37,2013-01-26 05:44:00,
2013-01-26 05:49:00,38.3,35.3,29.43,SSW,211,12.7,12.7,89,0.02,RA,,0.16,WeatherDisplay:10.37,2013-01-26 05:49:00,
2013-01-26 05:54:00,38.2,35.2,29.43,WSW,250,9.2,9.2,89,0.02,,,0.16,WeatherDisplay:10.37,2013-01-26 05:54:00,
2013-01-26 05:59:00,38.0,34.8,29.43,WSW,254,10.4,10.4,88,0.02,CLR,,0.16,WeatherDisplay:10.37,2013-01-26 05:59:00,
2013-01-26 06:04:00,37.9,34.9,29.44,WSW,247,5.8,5.8,89,0.02,CLR,,0.17,WeatherDisplay:10.37,2013-01-26 06:04:00,
2013-01-26 06:09:00,37.7,34.8,29.44,SW,219,13.8,13.8,89,0.02,RA,,0.17,WeatherDisplay:10.37,2013-01-26 06:09:00,
2013-01-26 06:14:00,37.7,34.8,29.44,WSW,250,6.9,6.9,89,0.02,RA,,0.17,WeatherDisplay:10.37,2013-01-26 06:14:00,
2013-01-26 06:19:00,37.6,34.7,29.44,SW,217,6.0,6.0,89,0.02,CLR,,0.17,WeatherDisplay:10.37,2013-01-26 06:19:00,
2013-01-26 06:24:00,37.5,34.6,29.44,SW,218,6.0,6.0,89,0.02,CLR,,0.17,WeatherDisplay:10.37,2013-01-26 06:24:00,
2013-01-26 06:29:00,37.3,34.4,29.45,SW,228,6.9,6.9,89,0.02,CLR,,0.17,WeatherDisplay:10.37,2013-01-26 06:29:00,
2013-01-26 06:34:00,37.1,34.4,29.45,SW,215,5.8,5.8,90,0.02,CLR,,0.17,WeatherDisplay:10.37,2013-01-26 06:34:00,
2013-01-26 06:39:00,36.9,34.2,29.45,SW,223,6.0,6.0,90,0.02,CLR,,0.17,WeatherDisplay:10.37,2013-01-26 06:39:00,
2013-01-26 06:44:00,36.9,34.2,29.44,West,268,7.0,7.0,90,0.01,CLR,,0.17,WeatherDisplay:10.37,2013-01-26 06:44:00,
2013-01-26 06:49:00,36.9,34.2,29.44,SW,229,11.5,11.5,90,0.01,CLR,,0.17,WeatherDisplay:10.37,2013-01-26 06:49:00,
2013-01-26 06:54:00,36.9,34.2,29.44,SSW,201,6.9,6.9,90,0.01,CLR,,0.17,WeatherDisplay:10.37,2013-01-26 06:54:00,
2013-01-26 06:59:00,37.0,34.3,29.44,SSW,208,15.0,15.0,90,0.01,CLR,,0.17,WeatherDisplay:10.37,2013-01-26 06:59:00,
2013-01-26 07:04:00,37.1,34.4,29.45,WNW,282,11.5,11.5,90,0.01,CLR,,0.17,WeatherDisplay:10.37,2013-01-26 07:04:00,
2013-01-26 07:09:00,37.1,34.4,29.45,SSW,210,9.2,9.2,90,0.00,CLR,,0.17,WeatherDisplay:10.37,2013-01-26 07:09:00,
2013-01-26 07:14:00,37.1,34.2,29.45,South,186,12.7,12.7,89,0.00,CLR,,0.17,WeatherDisplay:10.37,2013-01-26 07:14:00,
2013-01-26 07:19:00,37.2,34.3,29.45,WSW,245,10.4,10.4,89,0.00,CLR,,0.17,WeatherDisplay:10.37,2013-01-26 07:19:00,
2013-01-26 07:24:00,37.2,34.3,29.45,South,191,10.4,10.4,89,0.00,CLR,,0.17,WeatherDisplay:10.37,2013-01-26 07:24:00,
2013-01-26 07:29:00,37.2,34.3,29.45,SW,227,10.4,10.4,89,0.00,CLR,,0.17,WeatherDisplay:10.37,2013-01-26 07:29:00,
2013-01-26 07:34:00,37.1,34.2,29.45,SSW,204,11.5,11.5,89,0.00,CLR,,0.17,WeatherDisplay:10.37,2013-01-26 07:34:00,
2013-01-26 07:39:00,37.1,34.2,29.45,SW,215,10.4,10.4,89,0.00,CLR,,0.17,WeatherDisplay:10.37,2013-01-26 07:39:00,
2013-01-26 07:44:00,37.1,33.9,29.45,West,267,13.0,13.0,88,0.00,CLR,,0.17,WeatherDisplay:10.37,2013-01-26 07:44:00,
2013-01-26 07:49:00,37.3,34.1,29.46,SW,215,11.5,11.5,88,0.00,CLR,,0.17,WeatherDisplay:10.37,2013-01-26 07:49:00,
2013-01-26 07:54:00,37.4,34.2,29.46,West,273,10.4,10.4,88,0.00,CLR,,0.17,WeatherDisplay:10.37,2013-01-26 07:54:00,
2013-01-26 07:59:00,37.4,34.2,29.47,SSE,157,12.7,12.7,88,0.00,CLR,,0.17,WeatherDisplay:10.37,2013-01-26 07:59:00,
2013-01-26 08:04:00,37.4,34.2,29.47,West,265,11.5,11.5,88,0.00,CLR,,0.17,WeatherDisplay:10.37,2013-01-26 08:04:00,
2013-01-26 08:09:00,37.6,34.4,29.47,SW,225,9.2,9.2,88,0.00,CLR,,0.17,WeatherDisplay:10.37,2013-01-26 08:09:00,
2013-01-26 08:14:00,37.5,34.3,29.47,SW,236,9.2,9.2,88,0.00,CLR,,0.17,WeatherDisplay:10.37,2013-01-26 08:14:00,
2013-01-26 08:19:00,37.5,34.3,29.47,WSW,239,11.5,11.5,88,0.00,CLR,,0.17,WeatherDisplay:10.37,2013-01-26 08:19:00,
2013-01-26 08:24:00,37.4,34.2,29.47,SSW,212,11.5,11.5,88,0.01,RA,,0.17,WeatherDisplay:10.37,2013-01-26 08:24:00,
2013-01-26 08:29:00,37.4,34.2,29.47,West,262,11.5,11.5,88,0.01,RA,,0.17,WeatherDisplay:10.37,2013-01-26 08:29:00,
2013-01-26 08:34:00,37.4,34.2,29.47,SW,220,11.5,11.5,88,0.01,,,0.17,WeatherDisplay:10.37,2013-01-26 08:34:00,
2013-01-26 08:39:00,37.6,34.4,29.47,SW,229,9.2,9.2,88,0.01,CLR,,0.17,WeatherDisplay:10.37,2013-01-26 08:39:00,
2013-01-26 08:44:00,37.5,34.3,29.47,WSW,247,6.9,6.9,88,0.01,CLR,,0.17,WeatherDisplay:10.37,2013-01-26 08:44:00,
2013-01-26 08:49:00,37.4,34.2,29.47,SSW,211,9.2,9.2,88,0.01,CLR,,0.17,WeatherDisplay:10.37,2013-01-26 08:49:00,
2013-01-26 08:54:00,37.4,34.2,29.47,WSW,244,11.5,11.5,88,0.01,CLR,,0.17,WeatherDisplay:10.37,2013-01-26 08:54:00,
2013-01-26 08:59:00,37.5,34.6,29.47,SSW,210,9.2,9.2,89,0.01,CLR,,0.17,WeatherDisplay:10.37,2013-01-26 08:59:00,
2013-01-26 09:04:00,37.5,34.6,29.47,South,184,10.4,10.4,89,0.01,CLR,,0.17,WeatherDisplay:10.37,2013-01-26 09:04:00,
2013-01-26 09:09:00,37.7,34.8,29.47,South,190,12.7,12.7,89,0.01,CLR,,0.17,WeatherDisplay:10.37,2013-01-26 09:09:00,
2013-01-26 09:14:00,37.7,34.8,29.47,SSW,212,15.0,15.0,89,0.01,CLR,,0.17,WeatherDisplay:10.37,2013-01-26 09:14:00,
2013-01-26 09:19:00,37.7,34.5,29.48,SW,228,13.8,13.8,88,0.01,CLR,,0.17,WeatherDisplay:10.37,2013-01-26 09:19:00,
2013-01-26 09:24:00,37.7,34.5,29.48,WSW,251,8.1,8.1,88,0.00,CLR,,0.17,WeatherDisplay:10.37,2013-01-26 09:24:00,
2013-01-26 09:29:00,37.6,34.7,29.48,WSW,246,11.5,11.5,89,0.00,CLR,,0.17,WeatherDisplay:10.37,2013-01-26 09:29:00,
2013-01-26 09:34:00,37.6,34.7,29.48,WSW,244,11.5,11.5,89,0.00,CLR,,0.17,WeatherDisplay:10.37,2013-01-26 09:34:00,
2013-01-26 09:39:00,37.6,34.7,29.48,SW,236,9.2,9.2,89,0.00,CLR,,0.17,WeatherDisplay:10.37,2013-01-26 09:39:00,
2013-01-26 09:44:00,37.6,34.7,29.48,SW,217,13.0,13.0,89,0.01,RA,,0.18,WeatherDisplay:10.37,2013-01-26 09:44:00,
2013-01-26 09:49:00,37.7,34.8,29.48,SW,236,11.5,11.5,89,0.01,RA,,0.18,WeatherDisplay:10.37,2013-01-26 09:49:00,
2013-01-26 09:54:00,37.8,34.8,29.48,SW,234,13.8,13.8,89,0.01,,,0.18,WeatherDisplay:10.37,2013-01-26 09:54:00,
2013-01-26 09:59:00,37.9,34.9,29.48,SW,217,11.5,11.5,89,0.01,CLR,,0.18,WeatherDisplay:10.37,2013-01-26 09:59:00,
2013-01-26 10:04:00,38.0,35.0,29.49,SW,216,11.5,11.5,89,0.01,CLR,,0.18,WeatherDisplay:10.37,2013-01-26 10:04:00,
2013-01-26 10:09:00,38.2,35.2,29.49,WSW,244,13.8,13.8,89,0.01,CLR,,0.18,WeatherDisplay:10.37,2013-01-26 10:09:00,
2013-01-26 10:14:00,38.2,35.0,29.49,SW,215,12.7,12.7,88,0.01,CLR,,0.18,WeatherDisplay:10.37,2013-01-26 10:14:00,
2013-01-26 10:19:00,38.3,35.1,29.50,SSW,205,12.7,12.7,88,0.01,CLR,,0.18,WeatherDisplay:10.37,2013-01-26 10:19:00,
2013-01-26 10:24:00,38.4,35.2,29.50,SW,234,12.7,12.7,88,0.01,CLR,,0.18,WeatherDisplay:10.37,2013-01-26 10:24:00,
2013-01-26 10:29:00,38.4,35.2,29.50,SW,219,13.0,13.0,88,0.01,CLR,,0.18,WeatherDisplay:10.37,2013-01-26 10:29:00,
2013-01-26 10:34:00,38.6,35.1,29.50,SSW,213,11.5,11.5,87,0.02,RA,,0.19,WeatherDisplay:10.37,2013-01-26 10:34:00,
2013-01-26 10:39:00,38.7,35.2,29.50,SSW,212,13.8,13.8,87,0.02,RA,,0.19,WeatherDisplay:10.37,2013-01-26 10:39:00,
2013-01-26 10:44:00,38.9,35.4,29.50,SSW,209,16.1,16.1,87,0.01,,,0.19,WeatherDisplay:10.37,2013-01-26 10:44:00,
2013-01-26 10:49:00,39.0,35.2,29.51,WSW,242,9.2,9.2,86,0.01,CLR,,0.19,WeatherDisplay:10.37,2013-01-26 10:49:00,
2013-01-26 10:54:00,39.1,35.3,29.51,SW,232,11.5,11.5,86,0.01,CLR,,0.19,WeatherDisplay:10.37,2013-01-26 10:54:00,
2013-01-26 10:59:00,39.3,35.5,29.51,SW,217,11.5,11.5,86,0.01,CLR,,0.19,WeatherDisplay:10.37,2013-01-26 10:59:00,
2013-01-26 11:04:00,39.5,35.7,29.52,SW,225,10.4,10.4,86,0.02,RA,,0.20,WeatherDisplay:10.37,2013-01-26 11:04:00,
2013-01-26 11:09:00,39.6,35.8,29.52,SW,223,5.8,5.8,86,0.02,RA,,0.20,WeatherDisplay:10.37,2013-01-26 11:09:00,
2013-01-26 11:14:00,39.8,36.0,29.52,SW,232,6.9,6.9,86,0.02,CLR,,0.20,WeatherDisplay:10.37,2013-01-26 11:14:00,
2013-01-26 11:19:00,39.9,36.1,29.52,SSW,204,5.8,5.8,86,0.02,CLR,,0.20,WeatherDisplay:10.37,2013-01-26 11:19:00,
2013-01-26 11:24:00,40.1,36.2,29.52,West,259,5.8,5.8,86,0.02,CLR,,0.20,WeatherDisplay:10.37,2013-01-26 11:24:00,
2013-01-26 11:29:00,40.2,36.3,29.52,WSW,237,5.8,5.8,86,0.02,CLR,,0.20,WeatherDisplay:10.37,2013-01-26 11:29:00,
2013-01-26 11:34:00,40.4,36.5,29.51,SSW,211,5.8,5.8,86,0.01,CLR,,0.20,WeatherDisplay:10.37,2013-01-26 11:34:00,
2013-01-26 11:39:00,40.6,36.7,29.51,SSW,202,10.0,10.0,86,0.01,CLR,,0.20,WeatherDisplay:10.37,2013-01-26 11:39:00,
2013-01-26 11:44:00,40.8,36.6,29.51,SSW,212,9.2,9.2,85,0.01,CLR,,0.20,WeatherDisplay:10.37,2013-01-26 11:44:00,
2013-01-26 11:49:00,41.1,37.2,29.51,SSW,198,10.4,10.4,86,0.01,CLR,,0.20,WeatherDisplay:10.37,2013-01-26 11:49:00,
2013-01-26 11:54:00,41.4,37.2,29.51,SW,225,11.5,11.5,85,0.01,CLR,,0.20,WeatherDisplay:10.37,2013-01-26 11:54:00,
2013-01-26 11:59:00,41.6,37.4,29.51,SW,221,6.9,6.9,85,0.01,CLR,,0.20,WeatherDisplay:10.37,2013-01-26 11:59:00,
2013-01-26 12:04:00,41.8,37.3,29.50,SW,217,11.5,11.5,84,0.00,CLR,,0.20,WeatherDisplay:10.37,2013-01-26 12:04:00,
2013-01-26 12:09:00,41.8,37.3,29.50,SSW,192,9.2,9.2,84,0.00,CLR,,0.20,WeatherDisplay:10.37,2013-01-26 12:09:00,
2013-01-26 12:14:00,41.7,37.2,29.50,SSW,196,9.2,9.2,84,0.00,CLR,,0.20,WeatherDisplay:10.37,2013-01-26 12:14:00,
2013-01-26 12:19:00,41.6,37.1,29.50,SSW,193,10.4,10.4,84,0.00,CLR,,0.20,WeatherDisplay:10.37,2013-01-26 12:19:00,
2013-01-26 12:24:00,41.8,37.6,29.50,SW,219,10.4,10.4,85,0.01,RA,,0.20,WeatherDisplay:10.37,2013-01-26 12:24:00,
2013-01-26 12:29:00,42.2,37.7,29.50,WSW,250,6.9,6.9,84,0.01,RA,,0.20,WeatherDisplay:10.37,2013-01-26 12:29:00,
2013-01-26 12:34:00,42.7,37.9,29.49,South,190,11.5,11.5,83,0.01,CLR,,0.20,WeatherDisplay:10.37,2013-01-26 12:34:00,
2013-01-26 12:39:00,42.9,37.8,29.49,SW,217,12.7,12.7,82,0.01,CLR,,0.20,WeatherDisplay:10.37,2013-01-26 12:39:00,
2013-01-26 12:44:00,42.9,38.1,29.48,SW,226,11.5,11.5,83,0.01,CLR,,0.20,WeatherDisplay:10.37,2013-01-26 12:44:00,
2013-01-26 12:49:00,43.1,38.3,29.48,SSW,209,10.4,10.4,83,0.01,CLR,,0.20,WeatherDisplay:10.37,2013-01-26 12:49:00,
2013-01-26 12:54:00,43.1,38.3,29.48,SW,225,8.0,8.0,83,0.01,CLR,,0.20,WeatherDisplay:10.37,2013-01-26 12:54:00,
2013-01-26 12:59:00,43.2,38.4,29.47,SSW,210,11.5,11.5,83,0.01,CLR,,0.20,WeatherDisplay:10.37,2013-01-26 12:59:00,
2013-01-26 13:04:00,43.3,38.2,29.47,SW,225,11.5,11.5,82,0.01,CLR,,0.20,WeatherDisplay:10.37,2013-01-26 13:04:00,
2013-01-26 13:09:00,43.5,38.4,29.47,South,191,11.5,11.5,82,0.01,CLR,,0.20,WeatherDisplay:10.37,2013-01-26 13:09:00,
2013-01-26 13:14:00,43.5,38.7,29.48,SSW,200,11.0,11.0,83,0.01,CLR,,0.20,WeatherDisplay:10.37,2013-01-26 13:14:00,
2013-01-26 13:19:00,43.5,38.4,29.48,SW,220,13.8,13.8,82,0.01,CLR,,0.20,WeatherDisplay:10.37,2013-01-26 13:19:00,
2013-01-26 13:24:00,43.7,38.6,29.48,SSW,194,13.8,13.8,82,0.00,CLR,,0.20,WeatherDisplay:10.37,2013-01-26 13:24:00,
2013-01-26 13:29:00,43.8,38.7,29.47,SW,218,12.7,12.7,82,0.00,CLR,,0.20,WeatherDisplay:10.37,2013-01-26 13:29:00,
2013-01-26 13:34:00,43.7,38.3,29.47,South,188,15.0,15.0,81,0.00,CLR,,0.20,WeatherDisplay:10.37,2013-01-26 13:34:00,
2013-01-26 13:39:00,43.3,38.2,29.47,SW,215,12.7,12.7,82,0.00,CLR,,0.20,WeatherDisplay:10.37,2013-01-26 13:39:00,
2013-01-26 13:44:00,43.1,38.0,29.47,SSW,194,11.5,11.5,82,0.00,CLR,,0.20,WeatherDisplay:10.37,2013-01-26 13:44:00,
2013-01-26 13:49:00,43.1,38.3,29.47,SSW,198,11.5,11.5,83,0.00,CLR,,0.20,WeatherDisplay:10.37,2013-01-26 13:49:00,
2013-01-26 13:54:00,43.3,38.5,29.47,SSW,196,9.2,9.2,83,0.00,CLR,,0.20,WeatherDisplay:10.37,2013-01-26 13:54:00,
2013-01-26 13:59:00,43.6,38.5,29.46,SSW,192,9.2,9.2,82,0.00,CLR,,0.20,WeatherDisplay:10.37,2013-01-26 13:59:00,
2013-01-26 14:04:00,44.0,38.9,29.46,SSW,196,6.9,6.9,82,0.00,CLR,,0.20,WeatherDisplay:10.37,2013-01-26 14:04:00,
2013-01-26 14:09:00,44.5,38.7,29.46,WSW,238,11.5,11.5,80,0.00,CLR,,0.20,WeatherDisplay:10.37,2013-01-26 14:09:00,
2013-01-26 14:14:00,44.8,39.0,29.46,SSW,197,6.9,6.9,80,0.00,CLR,,0.20,WeatherDisplay:10.37,2013-01-26 14:14:00,
2013-01-26 14:19:00,45.1,39.3,29.46,South,187,9.2,9.2,80,0.00,CLR,,0.20,WeatherDisplay:10.37,2013-01-26 14:19:00,
2013-01-26 14:24:00,45.3,39.5,29.46,SSE,164,10.4,10.4,80,0.00,CLR,,0.20,WeatherDisplay:10.37,2013-01-26 14:24:00,
2013-01-26 14:29:00,45.4,38.9,29.44,South,186,8.1,8.1,78,0.00,CLR,,0.20,WeatherDisplay:10.37,2013-01-26 14:29:00,
2013-01-26 14:34:00,45.0,38.2,29.44,SSW,194,11.5,11.5,77,0.00,CLR,,0.20,WeatherDisplay:10.37,2013-01-26 14:34:00,
2013-01-26 14:39:00,44.3,38.2,29.44,South,190,8.1,8.1,79,0.00,CLR,,0.20,WeatherDisplay:10.37,2013-01-26 14:39:00,
2013-01-26 14:44:00,43.8,38.0,29.44,South,181,9.2,9.2,80,0.00,CLR,,0.20,WeatherDisplay:10.37,2013-01-26 14:44:00,
2013-01-26 14:49:00,43.4,37.6,29.44,South,181,11.5,11.5,80,0.00,CLR,,0.20,WeatherDisplay:10.37,2013-01-26 14:49:00,
2013-01-26 14:54:00,43.2,37.4,29.44,South,179,6.9,6.9,80,0.00,CLR,,0.20,WeatherDisplay:10.37,2013-01-26 14:54:00,
2013-01-26 14:59:00,42.8,37.4,29.43,South,175,9.2,9.2,81,0.00,CLR,,0.20,WeatherDisplay:10.37,2013-01-26 14:59:00,
2013-01-26 15:04:00,42.5,37.1,29.43,SSW,196,9.2,9.2,81,0.00,CLR,,0.20,WeatherDisplay:10.37,2013-01-26 15:04:00,
2013-01-26 15:09:00,42.3,37.2,29.43,SE,127,10.4,10.4,82,0.00,CLR,,0.20,WeatherDisplay:10.37,2013-01-26 15:09:00,
2013-01-26 15:14:00,42.0,36.9,29.42,SSE,161,6.9,6.9,82,0.00,CLR,,0.20,WeatherDisplay:10.37,2013-01-26 15:14:00,
2013-01-26 15:19:00,41.8,36.7,29.42,SSE,156,9.2,9.2,82,0.00,CLR,,0.20,WeatherDisplay:10.37,2013-01-26 15:19:00,
2013-01-26 15:24:00,41.7,36.9,29.42,South,182,4.6,4.6,83,0.00,CLR,,0.20,WeatherDisplay:10.37,2013-01-26 15:24:00,
2013-01-26 15:29:00,41.5,36.7,29.41,South,171,5.8,5.8,83,0.00,CLR,,0.20,WeatherDisplay:10.37,2013-01-26 15:29:00,
2013-01-26 15:34:00,41.4,36.6,29.41,SSE,147,5.8,5.8,83,0.00,CLR,,0.20,WeatherDisplay:10.37,2013-01-26 15:34:00,
2013-01-26 15:39:00,41.2,36.1,29.41,SSE,153,3.5,3.5,82,0.00,CLR,,0.20,WeatherDisplay:10.37,2013-01-26 15:39:00,
2013-01-26 15:44:00,41.1,36.3,29.40,SSE,153,3.5,3.5,83,0.00,CLR,,0.20,WeatherDisplay:10.37,2013-01-26 15:44:00,
2013-01-26 15:49:00,41.0,36.2,29.40,SSE,153,2.0,2.0,83,0.00,CLR,,0.20,WeatherDisplay:10.37,2013-01-26 15:49:00,
2013-01-26 15:54:00,40.8,36.0,29.40,SSE,161,2.0,2.0,83,0.00,CLR,,0.20,WeatherDisplay:10.37,2013-01-26 15:54:00,
2013-01-26 15:59:00,40.7,35.9,29.39,South,181,10.4,10.4,83,0.00,CLR,,0.20,WeatherDisplay:10.37,2013-01-26 15:59:00,
2013-01-26 16:04:00,40.6,35.8,29.39,South,188,6.9,6.9,83,0.00,CLR,,0.20,WeatherDisplay:10.37,2013-01-26 16:04:00,
2013-01-26 16:09:00,40.5,36.0,29.39,SSW,193,4.6,4.6,84,0.00,CLR,,0.20,WeatherDisplay:10.37,2013-01-26 16:09:00,
2013-01-26 16:14:00,40.4,35.9,29.38,SSW,193,4.6,4.6,84,0.00,CLR,,0.20,WeatherDisplay:10.37,2013-01-26 16:14:00,
2013-01-26 16:19:00,40.4,35.9,29.38,SSE,158,5.8,5.8,84,0.00,CLR,,0.20,WeatherDisplay:10.37,2013-01-26 16:19:00,
2013-01-26 16:25:00,40.3,36.1,29.38,South,179,5.8,5.8,85,0.00,CLR,,0.20,WeatherDisplay:10.37,2013-01-26 16:25:00,
2013-01-26 16:30:00,40.2,36.1,29.37,South,175,5.8,5.8,85,0.00,CLR,,0.20,WeatherDisplay:10.37,2013-01-26 16:30:00,
2013-01-26 16:35:00,40.2,36.3,29.37,SSE,159,6.9,6.9,86,0.00,CLR,,0.20,WeatherDisplay:10.37,2013-01-26 16:35:00,
2013-01-26 16:40:00,40.2,36.6,29.37,SSE,161,4.6,4.6,87,0.00,CLR,,0.20,WeatherDisplay:10.37,2013-01-26 16:40:00,
2013-01-26 16:45:00,40.2,36.6,29.36,East,101,10.4,10.4,87,0.00,CLR,,0.20,WeatherDisplay:10.37,2013-01-26 16:45:00,
2013-01-26 16:50:00,40.2,36.6,29.36,ESE,123,6.9,6.9,87,0.00,CLR,,0.20,WeatherDisplay:10.37,2013-01-26 16:50:00,
2013-01-26 16:55:00,40.2,36.6,29.36,SSE,150,11.5,11.5,87,0.00,CLR,,0.20,WeatherDisplay:10.37,2013-01-26 16:55:00,
2013-01-26 17:00:00,40.3,37.0,29.34,SSW,193,9.2,9.2,88,0.00,CLR,,0.20,WeatherDisplay:10.37,2013-01-26 17:00:00,
2013-01-26 17:05:00,40.5,37.2,29.34,SSE,157,12.7,12.7,88,0.00,CLR,,0.20,WeatherDisplay:10.37,2013-01-26 17:05:00,
2013-01-26 17:10:00,40.6,37.3,29.34,SSE,167,15.0,15.0,88,0.00,CLR,,0.20,WeatherDisplay:10.37,2013-01-26 17:10:00,
2013-01-26 17:15:00,40.7,37.4,29.33,SSE,162,13.8,13.8,88,0.00,CLR,,0.20,WeatherDisplay:10.37,2013-01-26 17:15:00,
2013-01-26 17:20:00,40.8,37.5,29.33,SSE,155,11.5,11.5,88,0.00,CLR,,0.20,WeatherDisplay:10.37,2013-01-26 17:20:00,
2013-01-26 17:25:00,40.9,37.6,29.33,South,184,9.2,9.2,88,0.00,CLR,,0.20,WeatherDisplay:10.37,2013-01-26 17:25:00,
2013-01-26 17:30:00,40.9,37.6,29.32,SSE,148,8.0,8.0,88,0.00,CLR,,0.20,WeatherDisplay:10.37,2013-01-26 17:30:00,
2013-01-26 17:35:00,41.0,38.0,29.32,SSE,163,7.0,7.0,89,0.00,CLR,,0.20,WeatherDisplay:10.37,2013-01-26 17:35:00,
2013-01-26 17:40:00,40.9,37.9,29.32,SSE,164,4.6,4.6,89,0.01,RA,,0.21,WeatherDisplay:10.37,2013-01-26 17:40:00,
2013-01-26 17:45:00,41.0,38.3,29.30,SSE,164,5.8,5.8,90,0.01,RA,,0.21,WeatherDisplay:10.37,2013-01-26 17:45:00,
2013-01-26 17:50:00,41.0,38.3,29.30,SSE,164,3.5,3.5,90,0.01,CLR,,0.21,WeatherDisplay:10.37,2013-01-26 17:50:00,
2013-01-26 17:55:00,40.9,38.2,29.30,SSE,153,4.6,4.6,90,0.02,RA,,0.22,WeatherDisplay:10.37,2013-01-26 17:55:00,
2013-01-26 18:00:00,40.9,38.5,29.29,SSE,153,3.5,3.5,91,0.02,RA,,0.22,WeatherDisplay:10.37,2013-01-26 18:00:00,
2013-01-26 18:05:00,40.9,38.5,29.29,SSE,153,0.0,0.0,91,0.02,,,0.22,WeatherDisplay:10.37,2013-01-26 18:05:00,
2013-01-26 18:10:00,40.8,38.4,29.29,SSE,153,2.3,2.3,91,0.02,CLR,,0.22,WeatherDisplay:10.37,2013-01-26 18:10:00,
2013-01-26 18:15:00,40.7,38.3,29.28,SSE,153,2.3,2.3,91,0.02,RA,,0.23,WeatherDisplay:10.37,2013-01-26 18:15:00,
2013-01-26 18:20:00,40.7,38.3,29.28,SSE,153,2.3,2.3,91,0.02,RA,,0.23,WeatherDisplay:10.37,2013-01-26 18:20:00,
2013-01-26 18:25:00,40.6,38.5,29.28,SSE,153,3.5,3.5,92,0.02,,,0.23,WeatherDisplay:10.37,2013-01-26 18:25:00,
2013-01-26 18:30:00,40.6,38.5,29.26,SSE,153,2.0,2.0,92,0.02,CLR,,0.23,WeatherDisplay:10.37,2013-01-26 18:30:00,
2013-01-26 18:35:00,40.5,38.4,29.26,SSE,153,0.0,0.0,92,0.02,CLR,,0.23,WeatherDisplay:10.37,2013-01-26 18:35:00,
2013-01-26 18:40:00,40.5,38.4,29.26,SSE,153,1.1,1.1,92,0.02,CLR,,0.23,WeatherDisplay:10.37,2013-01-26 18:40:00,
2013-01-26 18:45:00,40.5,38.4,29.24,SSE,153,0.0,0.0,92,0.02,CLR,,0.23,WeatherDisplay:10.37,2013-01-26 18:45:00,
2013-01-26 18:50:00,40.4,38.5,29.24,SSE,153,3.5,0.0,93,0.02,CLR,,0.24,WeatherDisplay:10.37,2013-01-26 18:50:00,
2013-01-26 18:55:00,40.4,38.5,29.24,SSE,153,0.0,0.0,93,0.02,RA,,0.24,WeatherDisplay:10.37,2013-01-26 18:55:00,
2013-01-26 19:00:00,40.4,38.5,29.22,SSE,153,0.0,0.0,93,0.02,RA,,0.24,WeatherDisplay:10.37,2013-01-26 19:00:00,
2013-01-26 19:05:00,40.4,38.5,29.22,SSE,153,0.0,0.0,93,0.02,CLR,,0.24,WeatherDisplay:10.37,2013-01-26 19:05:00,
2013-01-26 19:10:00,40.4,38.5,29.22,SSE,153,0.0,0.0,93,0.02,RA,,0.24,WeatherDisplay:10.37,2013-01-26 19:10:00,
2013-01-26 19:15:00,40.4,38.5,29.20,SSE,153,2.0,2.0,93,0.02,RA,,0.24,WeatherDisplay:10.37,2013-01-26 19:15:00,
2013-01-26 19:20:00,41.0,39.4,29.20,SSW,213,15.0,15.0,94,0.02,,,0.24,WeatherDisplay:10.37,2013-01-26 19:20:00,
2013-01-26 19:25:00,41.8,40.5,29.20,SSE,168,11.5,11.5,95,0.03,RA,,0.26,WeatherDisplay:10.37,2013-01-26 19:25:00,
2013-01-26 19:30:00,42.3,41.0,29.19,SSW,200,11.5,11.5,95,0.04,RA,,0.27,WeatherDisplay:10.37,2013-01-26 19:30:00,
2013-01-26 19:35:00,42.7,41.4,29.19,South,191,11.5,11.5,95,0.04,RA,,0.28,WeatherDisplay:10.37,2013-01-26 19:35:00,
2013-01-26 19:40:00,43.0,41.4,29.19,SSE,157,13.0,13.0,94,0.05,RA,,0.28,WeatherDisplay:10.37,2013-01-26 19:40:00,
2013-01-26 19:46:00,43.3,41.7,29.17,South,176,11.5,11.5,94,0.05,RA,,0.28,WeatherDisplay:10.37,2013-01-26 19:46:00,
2013-01-26 19:51:00,43.4,41.5,29.17,SSW,196,11.5,11.5,93,0.05,CLR,,0.28,WeatherDisplay:10.37,2013-01-26 19:51:00,
2013-01-26 19:56:00,43.6,41.7,29.17,South,181,10.0,10.0,93,0.05,RA,,0.28,WeatherDisplay:10.37,2013-01-26 19:56:00,
2013-01-26 20:01:00,43.6,41.7,29.16,South,181,12.7,12.7,93,0.05,RA,,0.28,WeatherDisplay:10.37,2013-01-26 20:01:00,
2013-01-26 20:06:00,43.7,41.8,29.16,SSE,155,10.4,10.4,93,0.06,RA,,0.29,WeatherDisplay:10.37,2013-01-26 20:06:00,
2013-01-26 20:11:00,43.8,41.6,29.16,SE,138,11.5,11.5,92,0.05,RA,,0.29,WeatherDisplay:10.37,2013-01-26 20:11:00,
2013-01-26 20:16:00,43.9,41.7,29.14,SW,217,12.7,12.7,92,0.05,CLR,,0.29,WeatherDisplay:10.37,2013-01-26 20:16:00,
2013-01-26 20:21:00,43.9,41.7,29.14,SSE,154,18.0,18.0,92,0.05,RA,,0.30,WeatherDisplay:10.37,2013-01-26 20:21:00,
2013-01-26 20:26:00,44.0,41.8,29.14,SSW,194,16.1,16.1,92,0.04,RA,,0.30,WeatherDisplay:10.37,2013-01-26 20:26:00,
2013-01-26 20:31:00,44.0,41.8,29.11,South,181,15.0,15.0,92,0.03,CLR,,0.30,WeatherDisplay:10.37,2013-01-26 20:31:00,
2013-01-26 20:36:00,44.1,41.9,29.11,SSE,166,15.0,15.0,92,0.02,CLR,,0.30,WeatherDisplay:10.37,2013-01-26 20:36:00,
2013-01-26 20:41:00,44.1,41.6,29.11,SW,217,18.4,18.4,91,0.02,CLR,,0.30,WeatherDisplay:10.37,2013-01-26 20:41:00,
2013-01-26 20:47:00,44.2,41.7,29.09,SSE,166,18.4,18.4,91,0.03,RA,,0.31,WeatherDisplay:10.37,2013-01-26 20:47:00,
2013-01-26 20:52:00,44.2,41.7,29.09,SSE,163,20.0,20.0,91,0.03,RA,,0.31,WeatherDisplay:10.37,2013-01-26 20:52:00,
2013-01-26 20:57:00,44.3,42.1,29.09,SSW,194,21.9,21.9,92,0.04,RA,,0.32,WeatherDisplay:10.37,2013-01-26 20:57:00,
2013-01-26 21:02:00,44.3,42.1,29.08,South,173,22.0,22.0,92,0.04,RA,,0.32,WeatherDisplay:10.37,2013-01-26 21:02:00,
2013-01-26 21:07:00,44.4,42.2,29.08,SSE,156,20.7,20.7,92,0.03,,,0.32,WeatherDisplay:10.37,2013-01-26 21:07:00,
2013-01-26 21:12:00,44.4,42.2,29.08,South,169,21.9,21.9,92,0.04,RA,,0.33,WeatherDisplay:10.37,2013-01-26 21:12:00,
2013-01-26 21:17:00,44.5,42.0,29.06,South,171,21.9,21.9,91,0.04,RA,,0.33,WeatherDisplay:10.37,2013-01-26 21:17:00,
2013-01-26 21:23:00,44.5,42.0,29.06,South,169,18.4,18.4,91,0.03,CLR,,0.33,WeatherDisplay:10.37,2013-01-26 21:23:00,
2013-01-26 21:28:00,44.5,42.0,29.06,SSW,207,14.0,14.0,91,0.03,CLR,,0.33,WeatherDisplay:10.37,2013-01-26 21:28:00,
2013-01-26 21:33:00,44.6,42.1,29.05,SSW,207,17.3,17.3,91,0.04,RA,,0.34,WeatherDisplay:10.37,2013-01-26 21:33:00,
2013-01-26 21:38:00,44.7,42.2,29.05,SSE,156,18.4,18.4,91,0.04,RA,,0.34,WeatherDisplay:10.37,2013-01-26 21:38:00,
2013-01-26 21:43:00,44.7,42.2,29.05,South,170,19.0,19.0,91,0.03,,,0.34,WeatherDisplay:10.37,2013-01-26 21:43:00,
2013-01-26 21:48:00,44.9,42.4,29.03,SSE,163,21.9,21.9,91,0.03,CLR,,0.34,WeatherDisplay:10.37,2013-01-26 21:48:00,
2013-01-26 21:54:00,45.0,42.5,29.03,South,175,19.6,19.6,91,0.02,CLR,,0.34,WeatherDisplay:10.37,2013-01-26 21:54:00,
2013-01-26 21:59:00,45.0,42.8,29.03,South,178,19.6,19.6,92,0.02,RA,,0.35,WeatherDisplay:10.37,2013-01-26 21:59:00,
2013-01-26 22:04:00,45.0,42.8,29.02,South,169,17.3,17.3,92,0.02,RA,,0.35,WeatherDisplay:10.37,2013-01-26 22:04:00,
2013-01-26 22:09:00,45.1,42.9,29.02,South,178,20.7,20.7,92,0.02,RA,,0.35,WeatherDisplay:10.37,2013-01-26 22:09:00,
2013-01-26 22:14:00,45.2,43.0,29.02,SSW,198,18.4,18.4,92,0.02,CLR,,0.35,WeatherDisplay:10.37,2013-01-26 22:14:00,
2013-01-26 22:19:00,45.2,43.0,29.00,SW,217,20.7,20.7,92,0.02,CLR,,0.35,WeatherDisplay:10.37,2013-01-26 22:19:00,
2013-01-26 22:24:00,45.3,43.1,29.00,SSW,202,19.6,19.6,92,0.02,RA,,0.35,WeatherDisplay:10.37,2013-01-26 22:24:00,
2013-01-26 22:29:00,45.4,43.2,28.98,SSE,160,19.6,19.6,92,0.02,RA,,0.35,WeatherDisplay:10.37,2013-01-26 22:29:00,
2013-01-26 22:34:00,45.4,43.2,28.98,South,180,11.5,11.5,92,0.02,CLR,,0.35,WeatherDisplay:10.37,2013-01-26 22:34:00,
2013-01-26 22:39:00,45.5,43.3,28.98,SSE,167,24.2,24.2,92,0.02,CLR,,0.35,WeatherDisplay:10.37,2013-01-26 22:39:00,
2013-01-26 22:44:00,45.6,43.4,28.96,SSE,156,19.6,19.6,92,0.02,CLR,,0.35,WeatherDisplay:10.37,2013-01-26 22:44:00,
2013-01-26 22:49:00,45.7,43.5,28.96,SSE,163,21.0,21.0,92,0.02,CLR,,0.35,WeatherDisplay:10.37,2013-01-26 22:49:00,
2013-01-26 22:54:00,45.9,43.7,28.96,South,175,17.3,17.3,92,0.02,RA,,0.36,WeatherDisplay:10.37,2013-01-26 22:54:00,
2013-01-26 22:59:00,46.1,43.6,28.94,SSE,164,26.0,26.0,91,0.02,RA,,0.36,WeatherDisplay:10.37,2013-01-26 22:59:00,
2013-01-26 23:04:00,46.3,43.8,28.94,SSE,165,24.2,24.2,91,0.02,,,0.36,WeatherDisplay:10.37,2013-01-26 23:04:00,
2013-01-26 23:09:00,46.3,43.8,28.94,SSE,159,19.6,19.6,91,0.02,CLR,,0.36,WeatherDisplay:10.37,2013-01-26 23:09:00,
2013-01-26 23:14:00,46.5,44.0,28.93,South,169,19.6,19.6,91,0.02,CLR,,0.36,WeatherDisplay:10.37,2013-01-26 23:14:00,
2013-01-26 23:19:00,46.6,44.1,28.93,South,182,24.2,24.2,91,0.02,CLR,,0.36,WeatherDisplay:10.37,2013-01-26 23:19:00,
2013-01-26 23:24:00,46.6,44.1,28.93,SSE,163,24.2,24.2,91,0.01,CLR,,0.36,WeatherDisplay:10.37,2013-01-26 23:24:00,
2013-01-26 23:29:00,46.8,44.3,28.91,SSE,154,23.0,23.0,91,0.01,CLR,,0.36,WeatherDisplay:10.37,2013-01-26 23:29:00,
2013-01-26 23:34:00,46.8,44.3,28.91,South,178,19.6,19.6,91,0.02,RA,,0.37,WeatherDisplay:10.37,2013-01-26 23:34:00,
2013-01-26 23:39:00,46.8,44.3,28.91,South,187,26.5,26.5,91,0.02,RA,,0.37,WeatherDisplay:10.37,2013-01-26 23:39:00,
2013-01-26 23:44:00,46.9,44.4,28.90,SSE,147,24.2,24.2,91,0.02,CLR,,0.37,WeatherDisplay:10.37,2013-01-26 23:44:00,
2013-01-26 23:49:00,46.9,44.4,28.90,SSW,194,25.3,25.3,91,0.02,CLR,,0.37,WeatherDisplay:10.37,2013-01-26 23:49:00,
2013-01-26 23:54:00,46.9,44.4,28.90,South,185,20.7,20.7,91,0.01,CLR,,0.37,WeatherDisplay:10.37,2013-01-26 23:54:00,
2013-01-26 23:59:00,46.9,44.4,28.89,SSE,156,24.2,24.2,91,0.01,CLR,,0.37,WeatherDisplay:10.37,2013-01-26 23:59:00,